createdAt,value
2023-05-09T00:02:08.643Z,63.50
2023-05-09T00:04:35.240Z,63.70
2023-05-09T00:07:04.230Z,63.60
2023-05-09T00:09:30.712Z,63.40
2023-05-09T00:11:57.193Z,63.60
2023-05-09T00:14:23.679Z,63.60
2023-05-09T00:16:50.170Z,63.50
2023-05-09T00:19:16.668Z,63.60
2023-05-09T00:21:43.137Z,63.60
2023-05-09T00:24:09.612Z,63.50
2023-05-09T00:26:36.081Z,63.50
2023-05-09T00:29:02.556Z,63.50
2023-05-09T00:31:29.074Z,63.40
2023-05-09T00:33:55.589Z,63.50
2023-05-09T00:36:22.071Z,63.60
2023-05-09T00:38:48.549Z,63.30
2023-05-09T00:41:15.018Z,63.40
2023-05-09T00:43:41.511Z,63.60
2023-05-09T00:46:08.052Z,63.50
2023-05-09T00:48:34.780Z,63.60
2023-05-09T00:51:01.277Z,63.50
2023-05-09T00:53:27.823Z,63.40
2023-05-09T00:55:54.315Z,63.60
2023-05-09T00:58:20.833Z,63.50
2023-05-09T01:00:47.319Z,63.60
2023-05-09T01:03:13.935Z,63.90
2023-05-09T01:05:40.549Z,63.50
2023-05-09T01:08:07.038Z,63.40
2023-05-09T01:10:33.511Z,63.50
2023-05-09T01:13:00.151Z,63.50
2023-05-09T01:15:26.817Z,63.60
2023-05-09T01:17:53.336Z,63.40
2023-05-09T01:20:19.850Z,63.60
2023-05-09T01:22:46.338Z,63.70
2023-05-09T01:25:12.936Z,63.60
2023-05-09T01:27:40.317Z,63.50
2023-05-09T01:30:06.786Z,63.40
2023-05-09T01:32:33.279Z,63.40
2023-05-09T01:34:59.802Z,63.50
2023-05-09T01:37:26.288Z,63.50
2023-05-09T01:39:52.807Z,63.60
2023-05-09T01:42:22.499Z,63.80
2023-05-09T01:44:48.995Z,63.60
2023-05-09T01:47:15.480Z,63.50
2023-05-09T01:49:41.990Z,63.40
2023-05-09T01:52:08.460Z,63.40
2023-05-09T01:54:34.958Z,63.50
2023-05-09T01:57:01.405Z,63.50
2023-05-09T01:59:27.897Z,63.70
2023-05-09T02:01:54.412Z,63.50
2023-05-09T02:04:20.921Z,63.30
2023-05-09T02:06:47.408Z,63.40
2023-05-09T02:09:13.910Z,63.40
2023-05-09T02:11:40.403Z,63.60
2023-05-09T02:14:06.891Z,63.30
2023-05-09T02:16:33.374Z,63.60
2023-05-09T02:18:59.860Z,63.50
2023-05-09T02:21:28.525Z,63.40
2023-05-09T02:23:55.638Z,63.30
2023-05-09T02:26:22.112Z,63.20
2023-05-09T02:28:48.576Z,63.20
2023-05-09T02:31:15.065Z,63.40
2023-05-09T02:33:41.526Z,63.40
2023-05-09T02:36:08.023Z,63.30
2023-05-09T02:38:34.503Z,63.40
2023-05-09T02:41:01.005Z,63.40
2023-05-09T02:43:27.485Z,63.20
2023-05-09T02:45:54.004Z,63.40
2023-05-09T02:48:20.484Z,63.40
2023-05-09T02:50:46.977Z,63.00
2023-05-09T02:53:13.491Z,63.30
2023-05-09T02:55:39.979Z,63.10
2023-05-09T02:58:13.433Z,63.10
2023-05-09T03:00:46.394Z,63.40
2023-05-09T03:03:12.941Z,63.30
2023-05-09T03:05:40.394Z,63.40
2023-05-09T03:08:06.866Z,63.20
2023-05-09T03:10:33.357Z,63.40
2023-05-09T03:12:59.827Z,63.30
2023-05-09T03:15:26.342Z,63.10
2023-05-09T03:17:52.854Z,63.20
2023-05-09T03:20:22.417Z,63.40
2023-05-09T03:22:48.917Z,63.20
2023-05-09T03:25:15.746Z,63.30
2023-05-09T03:27:42.396Z,63.50
2023-05-09T03:30:08.870Z,63.50
2023-05-09T03:32:35.422Z,63.30
2023-05-09T03:35:01.945Z,63.20
2023-05-09T03:37:28.430Z,63.30
2023-05-09T03:39:54.892Z,63.30
2023-05-09T03:42:21.425Z,63.40
2023-05-09T03:44:47.908Z,63.70
2023-05-09T03:47:14.375Z,64.10
2023-05-09T03:49:40.850Z,63.30
2023-05-09T03:52:07.361Z,63.10
2023-05-09T03:54:33.845Z,63.20
2023-05-09T03:57:04.459Z,63.40
2023-05-09T03:59:30.937Z,63.30
2023-05-09T04:01:57.452Z,63.30
2023-05-09T04:04:23.955Z,63.20
2023-05-09T04:06:50.443Z,63.50
2023-05-09T04:09:16.927Z,63.20
2023-05-09T04:11:43.420Z,63.30
2023-05-09T04:14:09.879Z,63.20
2023-05-09T04:16:36.731Z,63.40
2023-05-09T04:19:03.274Z,63.40
2023-05-09T04:21:29.747Z,63.40
2023-05-09T04:23:56.239Z,63.30
2023-05-09T04:26:22.835Z,63.10
2023-05-09T04:28:49.345Z,63.20
2023-05-09T04:31:15.917Z,63.30
2023-05-09T04:33:42.521Z,63.30
2023-05-09T04:36:08.983Z,63.20
2023-05-09T04:38:35.497Z,63.40
2023-05-09T04:41:01.993Z,63.30
2023-05-09T04:43:28.496Z,63.00
2023-05-09T04:45:54.990Z,63.20
2023-05-09T04:48:21.497Z,63.20
2023-05-09T04:50:47.976Z,63.20
2023-05-09T04:53:14.465Z,63.00
2023-05-09T04:55:40.914Z,63.20
2023-05-09T04:58:07.397Z,63.10
2023-05-09T05:00:33.872Z,63.30
2023-05-09T05:03:00.409Z,63.20
2023-05-09T05:05:27.116Z,63.20
2023-05-09T05:07:53.922Z,63.20
2023-05-09T05:10:20.402Z,63.40
2023-05-09T05:12:46.956Z,62.90
2023-05-09T05:15:13.733Z,63.00
2023-05-09T05:17:40.426Z,63.10
2023-05-09T05:20:10.553Z,63.40
2023-05-09T05:22:37.065Z,63.00
2023-05-09T05:25:03.598Z,63.10
2023-05-09T05:27:30.069Z,63.10
2023-05-09T05:29:56.549Z,63.10
2023-05-09T05:32:23.028Z,63.20
2023-05-09T05:34:49.515Z,63.20
2023-05-09T05:37:15.993Z,63.10
2023-05-09T05:39:42.492Z,63.10
2023-05-09T05:42:08.974Z,63.10
2023-05-09T05:44:35.448Z,63.20
2023-05-09T05:47:01.918Z,63.10
2023-05-09T05:49:28.400Z,63.10
2023-05-09T05:51:54.891Z,63.10
2023-05-09T05:54:21.372Z,63.10
2023-05-09T05:56:47.847Z,63.20
2023-05-09T05:59:16.544Z,63.00
2023-05-09T06:01:43.090Z,63.00
2023-05-09T06:04:09.645Z,63.00
2023-05-09T06:06:36.186Z,62.80
2023-05-09T06:09:02.676Z,63.00
2023-05-09T06:11:34.544Z,63.30
2023-05-09T06:14:01.032Z,63.00
2023-05-09T06:16:27.585Z,62.90
2023-05-09T06:18:55.952Z,62.90
2023-05-09T06:21:22.776Z,63.00
2023-05-09T06:24:05.765Z,62.90
2023-05-09T06:26:34.790Z,63.10
2023-05-09T06:29:01.242Z,62.90
2023-05-09T06:31:27.800Z,63.00
2023-05-09T06:33:54.298Z,63.00
2023-05-09T06:36:20.795Z,62.90
2023-05-09T06:38:47.333Z,63.10
2023-05-09T06:41:13.822Z,63.00
2023-05-09T06:43:40.290Z,63.00
2023-05-09T06:46:06.802Z,62.90
2023-05-09T06:48:33.373Z,63.00
2023-05-09T06:50:59.866Z,62.90
2023-05-09T06:53:26.362Z,63.10
2023-05-09T06:58:43.173Z,63.10
2023-05-09T07:01:10.719Z,62.90
2023-05-09T07:03:37.242Z,62.90
2023-05-09T07:06:03.727Z,62.90
2023-05-09T07:08:30.231Z,62.80
2023-05-09T07:10:56.713Z,63.00
2023-05-09T07:13:23.247Z,62.90
2023-05-09T07:15:49.730Z,63.10
2023-05-09T07:18:16.226Z,62.70
2023-05-09T07:20:42.698Z,63.10
2023-05-09T07:23:09.196Z,62.90
2023-05-09T07:25:35.660Z,63.20
2023-05-09T07:28:02.160Z,63.00
2023-05-09T07:30:28.647Z,63.30
2023-05-09T07:32:55.159Z,63.30
2023-05-09T07:35:21.635Z,63.40
2023-05-09T07:37:48.138Z,63.40
2023-05-09T07:40:14.910Z,63.30
2023-05-09T07:42:41.662Z,63.30
2023-05-09T07:45:08.186Z,63.20
2023-05-09T07:47:34.737Z,63.10
2023-05-09T07:50:01.275Z,63.10
2023-05-09T07:52:27.782Z,63.30
2023-05-09T07:54:54.268Z,63.60
2023-05-09T07:57:20.740Z,63.00
2023-05-09T07:59:47.225Z,63.20
2023-05-09T08:02:13.733Z,63.30
2023-05-09T08:04:40.262Z,63.50
2023-05-09T08:07:10.664Z,63.50
2023-05-09T08:09:37.176Z,63.40
2023-05-09T08:12:03.660Z,63.00
2023-05-09T08:14:30.179Z,63.30
2023-05-09T08:16:56.652Z,63.30
2023-05-09T08:19:23.145Z,63.40
2023-05-09T08:21:49.616Z,63.30
2023-05-09T08:24:16.123Z,63.40
2023-05-09T08:26:42.581Z,63.10
2023-05-09T08:29:09.076Z,63.40
2023-05-09T08:31:35.622Z,63.30
2023-05-09T08:34:02.145Z,63.20
2023-05-09T08:36:28.620Z,63.10
2023-05-09T08:38:55.096Z,63.20
2023-05-09T08:41:21.552Z,62.90
2023-05-09T08:43:48.031Z,63.20
2023-05-09T08:46:14.583Z,63.30
2023-05-09T08:48:41.067Z,63.20
2023-05-09T08:51:07.540Z,63.30
2023-05-09T08:53:34.017Z,63.20
2023-05-09T08:56:00.524Z,63.30
2023-05-09T08:58:27.006Z,62.90
2023-05-09T09:00:53.481Z,63.10
2023-05-09T09:03:19.957Z,63.30
2023-05-09T09:05:46.523Z,63.40
2023-05-09T09:08:13.057Z,63.20
2023-05-09T09:10:40.713Z,63.30
2023-05-09T09:13:07.217Z,63.40
2023-05-09T09:15:34.721Z,63.40
2023-05-09T09:18:01.307Z,63.20
2023-05-09T09:20:27.833Z,63.10
2023-05-09T09:22:54.303Z,63.10
2023-05-09T09:25:20.815Z,63.30
2023-05-09T09:27:47.369Z,63.30
2023-05-09T09:30:14.173Z,63.30
2023-05-09T09:32:40.870Z,63.30
2023-05-09T09:35:07.413Z,63.10
2023-05-09T09:37:33.913Z,62.80
2023-05-09T09:40:00.483Z,63.10
2023-05-09T09:42:26.990Z,63.50
2023-05-09T09:44:53.474Z,63.10
2023-05-09T09:47:19.939Z,63.10
2023-05-09T09:49:46.448Z,63.20
2023-05-09T09:52:12.988Z,63.20
2023-05-09T09:54:39.473Z,63.20
2023-05-09T09:57:05.993Z,63.00
2023-05-09T09:59:32.469Z,63.00
2023-05-09T10:01:58.963Z,62.60
2023-05-09T10:04:25.432Z,63.30
2023-05-09T10:06:51.944Z,62.90
2023-05-09T10:09:18.438Z,62.90
2023-05-09T10:11:44.933Z,63.10
2023-05-09T10:14:16.777Z,62.80
2023-05-09T10:16:44.660Z,62.90
2023-05-09T10:19:11.418Z,62.80
2023-05-09T10:21:40.772Z,63.00
2023-05-09T10:24:07.234Z,62.90
2023-05-09T10:26:33.918Z,63.10
2023-05-09T10:29:00.390Z,63.00
2023-05-09T10:31:26.915Z,63.30
2023-05-09T10:33:53.418Z,63.20
2023-05-09T10:36:19.893Z,62.80
2023-05-09T10:38:46.366Z,62.80
2023-05-09T10:41:12.856Z,63.20
2023-05-09T10:43:39.352Z,63.10
2023-05-09T10:46:05.829Z,63.10
2023-05-09T10:48:32.329Z,62.80
2023-05-09T10:50:58.802Z,62.50
2023-05-09T10:53:25.307Z,63.20
2023-05-09T10:55:51.776Z,63.00
2023-05-09T10:58:18.277Z,62.70
2023-05-09T11:00:44.747Z,63.30
2023-05-09T11:03:11.347Z,63.20
2023-05-09T11:05:37.872Z,62.50
2023-05-09T11:08:04.371Z,62.60
2023-05-09T11:10:30.844Z,62.80
2023-05-09T11:12:58.275Z,63.20
2023-05-09T11:15:24.984Z,62.70
2023-05-09T11:17:51.530Z,62.50
2023-05-09T11:20:18.018Z,62.80
2023-05-09T11:22:44.510Z,63.00
2023-05-09T11:25:10.976Z,63.20
2023-05-09T11:27:37.468Z,63.40
2023-05-09T11:30:03.928Z,63.60
2023-05-09T11:32:30.484Z,63.50
2023-05-09T11:34:56.980Z,63.40
2023-05-09T11:37:23.456Z,62.90
2023-05-09T11:39:49.920Z,63.10
2023-05-09T11:42:16.410Z,63.10
2023-05-09T11:44:42.995Z,63.50
2023-05-09T11:47:09.486Z,63.40
2023-05-09T11:49:35.961Z,63.30
2023-05-09T11:52:02.458Z,63.50
2023-05-09T11:54:28.946Z,63.00
2023-05-09T11:56:55.431Z,63.10
2023-05-09T11:59:22.843Z,63.50
2023-05-09T12:01:49.324Z,63.10
2023-05-09T12:04:15.812Z,63.40
2023-05-09T12:06:43.778Z,63.30
2023-05-09T12:09:10.904Z,63.50
2023-05-09T12:11:37.407Z,63.00
2023-05-09T12:14:03.900Z,63.10
2023-05-09T12:16:30.412Z,63.60
2023-05-09T12:18:56.987Z,63.20
2023-05-09T12:21:23.470Z,63.50
2023-05-09T12:23:51.737Z,63.60
2023-05-09T12:26:19.613Z,63.30
2023-05-09T12:28:46.135Z,63.30
2023-05-09T12:31:12.654Z,63.10
2023-05-09T12:33:39.175Z,63.00
2023-05-09T12:36:05.699Z,63.50
2023-05-09T12:38:32.273Z,63.30
2023-05-09T12:40:58.741Z,63.40
2023-05-09T12:43:25.266Z,63.10
2023-05-09T12:45:51.720Z,63.10
2023-05-09T12:48:18.224Z,63.50
2023-05-09T12:50:44.735Z,63.50
2023-05-09T12:53:16.888Z,63.60
2023-05-09T12:55:43.363Z,63.70
2023-05-09T12:58:09.844Z,63.60
2023-05-09T13:00:36.336Z,63.50
2023-05-09T13:03:02.898Z,63.40
2023-05-09T13:05:29.409Z,63.40
2023-05-09T13:07:55.942Z,63.40
2023-05-09T13:10:22.907Z,63.30
2023-05-09T13:12:49.431Z,63.40
2023-05-09T13:15:16.109Z,63.30
2023-05-09T13:17:42.868Z,63.30
2023-05-09T13:20:10.935Z,63.10
2023-05-09T13:22:37.435Z,63.60
2023-05-09T13:25:03.926Z,63.20
2023-05-09T13:27:30.394Z,63.20
2023-05-09T13:29:56.854Z,62.90
2023-05-09T13:32:23.386Z,63.20
2023-05-09T13:34:49.915Z,63.10
2023-05-09T13:37:16.402Z,63.00
2023-05-09T13:39:42.919Z,62.90
2023-05-09T13:42:09.403Z,63.00
2023-05-09T13:44:35.880Z,63.60
2023-05-09T13:47:02.364Z,63.30
2023-05-09T13:49:28.837Z,63.10
2023-05-09T13:51:55.299Z,63.80
2023-05-09T13:54:21.759Z,63.60
2023-05-09T13:56:48.247Z,63.80
2023-05-09T13:59:14.717Z,63.80
2023-05-09T14:01:41.249Z,63.20
2023-05-09T14:04:07.922Z,63.20
2023-05-09T14:06:34.445Z,63.60
2023-05-09T14:09:00.929Z,63.50
2023-05-09T14:11:27.415Z,63.10
2023-05-09T14:13:53.902Z,63.40
2023-05-09T14:16:20.450Z,63.70
2023-05-09T14:18:46.934Z,63.30
2023-05-09T14:21:13.407Z,63.70
2023-05-09T14:23:40.922Z,63.50
2023-05-09T14:26:07.403Z,63.70
2023-05-09T14:28:33.886Z,63.70
2023-05-09T14:31:00.446Z,63.90
2023-05-09T14:33:27.007Z,63.70
2023-05-09T14:35:53.501Z,63.50
2023-05-09T14:38:19.974Z,63.70
2023-05-09T14:40:46.444Z,63.70
2023-05-09T14:43:12.909Z,63.70
2023-05-09T14:45:39.395Z,63.50
2023-05-09T14:48:05.931Z,63.40
2023-05-09T14:50:32.458Z,63.90
2023-05-09T14:52:58.977Z,63.80
2023-05-09T14:55:25.461Z,63.90
2023-05-09T14:57:51.932Z,64.10
2023-05-09T15:00:21.822Z,64.20
2023-05-09T15:02:48.709Z,63.90
2023-05-09T15:05:15.221Z,63.90
2023-05-09T15:07:41.721Z,64.00
2023-05-09T15:10:11.001Z,64.00
2023-05-09T15:12:37.487Z,64.00
2023-05-09T15:15:03.952Z,64.00
2023-05-09T15:17:30.434Z,64.10
2023-05-09T15:19:56.923Z,63.80
2023-05-09T15:22:23.401Z,64.00
2023-05-09T15:24:49.893Z,64.00
2023-05-09T15:27:16.378Z,63.90
2023-05-09T15:29:42.848Z,64.10
2023-05-09T15:32:09.345Z,63.90
2023-05-09T15:34:35.832Z,63.90
2023-05-09T15:37:02.318Z,63.90
2023-05-09T15:39:28.987Z,63.80
2023-05-09T15:41:55.534Z,63.70
2023-05-09T15:44:22.023Z,63.70
2023-05-09T15:46:48.509Z,63.80
2023-05-09T15:49:14.984Z,63.90
2023-05-09T15:51:41.467Z,63.70
2023-05-09T15:54:07.963Z,63.90
2023-05-09T15:56:34.442Z,63.90
2023-05-09T15:59:00.949Z,63.70
2023-05-09T16:01:27.444Z,63.80
2023-05-09T16:03:54.047Z,63.80
2023-05-09T16:06:20.626Z,63.70
2023-05-09T16:08:47.129Z,63.70
2023-05-09T16:11:13.601Z,63.40
2023-05-09T16:13:40.122Z,63.40
2023-05-09T16:16:06.686Z,63.70
2023-05-09T16:18:33.228Z,63.60
2023-05-09T16:20:59.711Z,63.50
2023-05-09T16:23:26.187Z,63.50
2023-05-09T16:25:52.652Z,63.70
2023-05-09T16:28:23.081Z,63.70
2023-05-09T16:30:49.549Z,63.40
2023-05-09T16:33:16.021Z,63.60
2023-05-09T16:35:42.502Z,63.30
2023-05-09T16:38:08.990Z,63.30
2023-05-09T16:40:35.469Z,63.60
2023-05-09T16:43:01.925Z,63.50
2023-05-09T16:45:28.444Z,63.30
2023-05-09T16:47:55.005Z,63.20
2023-05-09T16:50:21.493Z,63.10
2023-05-09T16:52:48.080Z,63.40
2023-05-09T16:55:14.554Z,63.30
2023-05-09T16:57:41.031Z,63.30
2023-05-09T17:00:07.536Z,63.10
2023-05-09T17:02:34.035Z,63.20
2023-05-09T17:05:00.526Z,63.20
2023-05-09T17:07:27.033Z,63.40
2023-05-09T17:09:53.502Z,63.20
2023-05-09T17:12:19.973Z,63.20
2023-05-09T17:14:46.470Z,63.60
2023-05-09T17:17:12.967Z,63.10
2023-05-09T17:19:39.490Z,63.20
2023-05-09T17:22:05.966Z,63.60
2023-05-09T17:24:32.466Z,63.50
2023-05-09T17:26:58.972Z,63.40
2023-05-09T17:29:29.157Z,63.50
2023-05-09T17:31:55.709Z,63.30
2023-05-09T17:34:22.268Z,63.50
2023-05-09T17:36:48.696Z,63.50
2023-05-09T17:39:17.122Z,63.50
2023-05-09T17:41:43.622Z,63.50
2023-05-09T17:44:10.094Z,63.50
2023-05-09T17:46:36.684Z,63.60
2023-05-09T17:49:03.264Z,63.60
2023-05-09T17:51:29.771Z,63.40
2023-05-09T17:53:56.267Z,63.70
2023-05-09T17:56:22.745Z,63.70
2023-05-09T17:58:49.222Z,63.60
2023-05-09T18:01:15.741Z,63.70
2023-05-09T18:03:42.438Z,63.60
2023-05-09T18:06:09.002Z,63.60
2023-05-09T18:08:35.489Z,63.60
2023-05-09T18:11:01.960Z,63.70
2023-05-09T18:13:28.475Z,63.70
2023-05-09T18:15:55.078Z,63.70
2023-05-09T18:18:21.819Z,63.70
2023-05-09T18:20:48.326Z,63.80
2023-05-09T18:23:14.814Z,63.80
2023-05-09T18:25:41.383Z,63.80
2023-05-09T18:28:07.858Z,63.70
2023-05-09T18:30:34.331Z,63.70
2023-05-09T18:33:00.842Z,63.70
2023-05-09T18:35:27.335Z,63.80
2023-05-09T18:37:53.817Z,63.80
2023-05-09T18:40:20.310Z,63.70
2023-05-09T18:42:46.793Z,64.00
2023-05-09T18:45:17.209Z,63.70
2023-05-09T18:47:43.721Z,63.80
2023-05-09T18:50:10.247Z,63.70
2023-05-09T18:52:36.719Z,63.60
2023-05-09T18:55:03.181Z,63.80
2023-05-09T18:57:29.676Z,63.80
2023-05-09T18:59:56.155Z,63.60
2023-05-09T19:02:23.279Z,63.60
2023-05-09T19:04:49.780Z,64.00
2023-05-09T19:07:16.244Z,63.70
2023-05-09T19:09:42.762Z,63.70
2023-05-09T19:12:09.249Z,63.70
2023-05-09T19:14:35.722Z,63.70
2023-05-09T19:17:02.309Z,63.70
2023-05-09T19:19:28.866Z,63.60
2023-05-09T19:21:55.339Z,63.80
2023-05-09T19:24:21.816Z,63.70
2023-05-09T19:26:48.327Z,63.60
2023-05-09T19:29:14.805Z,63.70
2023-05-09T19:31:41.297Z,63.60
2023-05-09T19:34:07.779Z,63.60
2023-05-09T19:36:35.262Z,63.70
2023-05-09T19:39:01.754Z,63.70
2023-05-09T19:41:28.231Z,63.60
2023-05-09T19:43:54.722Z,63.60
2023-05-09T19:46:21.270Z,63.60
2023-05-09T19:48:47.790Z,63.70
2023-05-09T19:51:14.274Z,63.90
2023-05-09T19:53:40.761Z,63.70
2023-05-09T19:56:07.260Z,64.00
2023-05-09T19:58:33.753Z,63.70
2023-05-09T20:01:00.242Z,64.00
2023-05-09T20:03:26.873Z,63.70
2023-05-09T20:05:53.467Z,63.70
2023-05-09T20:08:19.943Z,64.00
2023-05-09T20:10:46.407Z,64.00
2023-05-09T20:13:12.946Z,63.80
2023-05-09T20:15:39.437Z,63.90
2023-05-09T20:18:11.272Z,63.90
2023-05-09T20:20:37.745Z,64.00
2023-05-09T20:23:05.278Z,63.90
2023-05-09T20:25:31.746Z,64.10
2023-05-09T20:27:58.223Z,64.00
2023-05-09T20:30:24.707Z,64.00
2023-05-09T20:32:53.336Z,63.90
2023-05-09T20:35:19.833Z,64.00
2023-05-09T20:37:46.310Z,63.90
2023-05-09T20:40:13.033Z,63.90
2023-05-09T20:42:39.585Z,64.00
2023-05-09T20:45:06.089Z,64.00
2023-05-09T20:47:32.645Z,64.00
2023-05-09T20:49:59.198Z,64.00
2023-05-09T20:52:25.691Z,63.90
2023-05-09T20:54:52.166Z,64.10
2023-05-09T20:57:18.655Z,63.90
2023-05-09T20:59:45.160Z,64.00
2023-05-09T21:02:11.667Z,64.00
2023-05-09T21:04:38.168Z,63.90
2023-05-09T21:07:04.651Z,63.90
2023-05-09T21:09:31.132Z,64.00
2023-05-09T21:11:57.614Z,63.90
2023-05-09T21:14:24.095Z,63.90
2023-05-09T21:16:50.607Z,63.90
2023-05-09T21:19:17.132Z,63.90
2023-05-09T21:21:43.610Z,63.90
2023-05-09T21:24:10.102Z,63.80
2023-05-09T21:26:36.572Z,63.90
2023-05-09T21:29:03.053Z,63.90
2023-05-09T21:31:29.572Z,64.00
2023-05-09T21:33:56.178Z,64.00
2023-05-09T21:36:22.677Z,63.80
2023-05-09T21:38:49.146Z,64.00
2023-05-09T21:41:15.636Z,64.00
2023-05-09T21:43:42.142Z,63.90
2023-05-09T21:46:08.619Z,64.00
2023-05-09T21:48:35.175Z,64.20
2023-05-09T21:51:01.704Z,64.10
2023-05-09T21:53:28.191Z,64.20
2023-05-09T21:55:54.701Z,64.20
2023-05-09T21:58:21.175Z,64.10
2023-05-09T22:00:47.667Z,64.10
2023-05-09T22:03:14.227Z,64.20
2023-05-09T22:05:40.748Z,64.00
2023-05-09T22:08:07.214Z,63.90
2023-05-09T22:10:33.701Z,64.00
2023-05-09T22:13:00.216Z,64.00
2023-05-09T22:15:29.356Z,64.10
2023-05-09T22:17:55.858Z,63.90
2023-05-09T22:20:22.343Z,63.90
2023-05-09T22:22:48.813Z,64.10
2023-05-09T22:25:15.289Z,64.00
2023-05-09T22:27:41.759Z,64.20
2023-05-09T22:30:08.259Z,64.30
2023-05-09T22:32:34.774Z,63.90
2023-05-09T22:35:01.286Z,64.10
2023-05-09T22:37:27.784Z,64.30
2023-05-09T22:39:54.246Z,64.00
2023-05-09T22:42:20.748Z,64.20
2023-05-09T22:44:47.224Z,64.00
2023-05-09T22:47:13.702Z,64.10
2023-05-09T22:49:40.175Z,64.20
2023-05-09T22:52:06.653Z,64.10
2023-05-09T22:54:33.149Z,64.20
2023-05-09T22:56:59.644Z,64.20
2023-05-09T22:59:26.119Z,64.10
2023-05-09T23:01:52.623Z,64.40
2023-05-09T23:04:19.117Z,64.10
2023-05-09T23:06:45.647Z,64.00
2023-05-09T23:09:12.123Z,64.10
2023-05-09T23:11:38.597Z,64.00
2023-05-09T23:14:05.090Z,64.10
2023-05-09T23:16:31.583Z,64.10
2023-05-09T23:18:58.151Z,64.20
2023-05-09T23:21:24.633Z,63.90
2023-05-09T23:23:51.107Z,64.10
2023-05-09T23:26:17.601Z,63.90
2023-05-09T23:28:44.097Z,64.00
2023-05-09T23:31:10.632Z,64.00
2023-05-09T23:33:37.121Z,64.00
2023-05-09T23:36:03.584Z,64.20
2023-05-09T23:38:30.090Z,64.10
2023-05-09T23:40:56.565Z,63.90
2023-05-09T23:43:23.060Z,64.20
2023-05-09T23:45:49.539Z,63.90
2023-05-09T23:48:16.035Z,64.10
2023-05-09T23:50:42.516Z,63.80
2023-05-09T23:53:08.992Z,64.20
2023-05-09T23:55:35.471Z,64.10
2023-05-09T23:58:05.669Z,64.20
